Miami, FL

5:20 AM EDT on May 28, 2015 (GMT -0400)
Hollywood | | Change Station
CLOSE
Current Station
Airport
Location: Hollywood,
Elevation: 7 ft
Nearby Weather Stations

Elev 7 ft 26.00 °N, 80.24 °W | Updated 574 days ago

Clear
Clear
76 °F
Feels Like 76 °F
N
10
Wind Variable Wind from ENE
Gusts 15 mph

Today
High -- | Low -- °F
--% Chance of Precip.
Yesterday
High -- | Low -- °F
Precip. -- in
6:30 AM 8:06 PM
Waxing Gibbous, 74% visible
Pressure 30.20 in
Visibility 10.0 miles
Clouds Few 3700 ft
Dew Point 64 °F
Humidity 67%
Rainfall 0.00 in
Snow Depth Not available.
UV 8 out of 12
Pollen 4.50 out of 12
Air Quality Not available.
Flu Activity Sporadic
METAR KHWO 301553Z 06015G22KT 10SM FEW037 35/18 A3020 RMK AO2 SLP225 T03500183

More Conditions Fewer Conditions

Pressure 30.20 in
Visibility 10.0 miles
Clouds Few 3700 ft
Dew Point 64 °F
Humidity 67%
Rainfall 0.00 in
Snow Depth Not available.
UV 8 out of 12
Pollen 4.50 out of 12
Air Quality Not available.
Flu Activity Sporadic
METAR KHWO 301553Z 06015G22KT 10SM FEW037 35/18 A3020 RMK AO2 SLP225 T03500183

More Conditions Fewer Conditions

10-Day Weather Forecast

Almanac

Astronomy

May. 28, 2015 Rise Set
Actual Time
Civil Twilight
Nautical Twilight
Astronomical Twilight
Moon
Length of Visible Light
Length of Day
Tomorrow will be .
, % of the Moon is Illuminated

Today's Extremes

State Highs State Lows

Community

WunderPhotos

Upload Photos

1,824,935 photos uploaded!

WunderBlogs® & News

Nearby

Air Quality

  Air Quality AQ Index Pollutant
Not available.

Snow Depth

Station Depth Elevation

Earthquake Activity

City Distance Mag. Time & Date
Minimum magnitude displayed is 2.5.

Coastal Water Temperatures

Place Temperature

Stations

Nearby Weather Stations

Station Location Temp. Windchill Dew Point Humidity Wind Precip. Elev Updated Type